Fulton, Iowa
Current Conditions -  °F | °C
As of 7:09 PM on Saturday 20 Dec 2014 (Local Time) from KDBQ Reporting Station
Haze Haze  
Wind Chill: 21°   Ceiling: 2700
Heat Index: 30°   Visibility: 4mi
Dew Point: 27°   Wind: 12mph
Humidity: 88%   Direction: 150°SSE
Pressure: 30.19"   Gusts: NA
Location:  42.12°N, 90.7234°W
Report Text: KDBQ 210109Z 15010KT 4SM BR FEW008 BKN027 OVC033 M01/M03 A3019 RMK AO2 T10111028
Loading
Personal Weather Stations






























Interactive Weather Map New forecast layout! Learn more

10-Day Weather Forecast

Advertisements
Track Severe Weather on mobile